createdAt,value
2019-05-12T00:00:39.479Z,65.39
2019-05-12T00:03:10.236Z,65.89
2019-05-12T00:05:40.517Z,65.57
2019-05-12T00:08:11.130Z,66.01
2019-05-12T00:10:41.664Z,66.09
2019-05-12T00:13:12.361Z,66.00
2019-05-12T00:15:42.921Z,66.66
2019-05-12T00:18:13.535Z,66.20
2019-05-12T00:20:43.972Z,66.62
2019-05-12T00:23:26.640Z,66.89
2019-05-12T00:25:47.989Z,67.04
2019-05-12T00:28:18.787Z,66.93
2019-05-12T00:30:50.888Z,66.73
2019-05-12T00:33:21.607Z,67.46
2019-05-12T00:35:52.086Z,67.18
2019-05-12T00:38:22.572Z,67.37
2019-05-12T00:40:53.091Z,67.75
2019-05-12T00:43:23.683Z,67.69
2019-05-12T00:45:54.005Z,66.77
2019-05-12T00:48:24.660Z,67.12
2019-05-12T00:50:55.037Z,66.87
2019-05-12T00:53:37.169Z,67.37
2019-05-12T00:55:57.896Z,67.60
2019-05-12T00:58:28.519Z,67.64
2019-05-12T01:00:59.711Z,67.55
2019-05-12T01:03:30.653Z,67.14
2019-05-12T01:06:01.248Z,67.36
2019-05-12T01:08:31.910Z,67.53
2019-05-12T01:11:02.373Z,67.96
2019-05-12T01:13:32.937Z,68.05
2019-05-12T01:16:03.241Z,68.72
2019-05-12T01:18:34.010Z,68.94
2019-05-12T01:21:04.645Z,69.95
2019-05-12T01:23:35.245Z,71.32
2019-05-12T01:26:05.849Z,71.59
2019-05-12T01:28:38.287Z,71.68
2019-05-12T01:31:10.045Z,71.21
2019-05-12T01:33:40.708Z,70.83
2019-05-12T01:36:11.308Z,70.93
2019-05-12T01:38:41.649Z,70.18
2019-05-12T01:41:12.274Z,70.17
2019-05-12T01:43:42.740Z,69.88
2019-05-12T01:46:13.319Z,70.08
2019-05-12T01:48:43.909Z,69.99
2019-05-12T01:51:14.251Z,69.55
2019-05-12T01:53:44.509Z,69.65
2019-05-12T01:56:15.075Z,70.26
2019-05-12T01:58:45.473Z,70.03
2019-05-12T02:01:18.385Z,69.83
2019-05-12T02:03:48.149Z,69.50
2019-05-12T02:06:18.802Z,69.75
2019-05-12T02:08:54.239Z,69.95
2019-05-12T02:11:34.127Z,69.86
2019-05-12T02:14:05.272Z,69.56
2019-05-12T02:16:35.762Z,69.43
2019-05-12T02:19:08.760Z,69.73
2019-05-12T02:21:38.466Z,69.78
2019-05-12T02:24:23.055Z,69.36
2019-05-12T02:26:40.880Z,69.49
2019-05-12T02:29:11.338Z,69.66
2019-05-12T02:31:41.881Z,70.04
2019-05-12T02:34:15.359Z,70.34
2019-05-12T02:36:45.042Z,70.32
2019-05-12T02:39:15.522Z,70.71
2019-05-12T02:41:46.272Z,70.49
2019-05-12T02:44:16.955Z,70.37
2019-05-12T02:46:47.350Z,70.01
2019-05-12T02:49:17.757Z,70.72
2019-05-12T02:51:49.272Z,71.56
2019-05-12T02:54:20.925Z,72.70
2019-05-12T02:56:51.270Z,73.76
2019-05-12T02:59:25.011Z,74.75
2019-05-12T03:01:55.190Z,74.74
2019-05-12T03:04:27.663Z,74.73
2019-05-12T03:07:02.017Z,74.56
2019-05-12T03:09:34.887Z,74.01
2019-05-12T03:12:05.902Z,73.88
2019-05-12T03:14:40.605Z,73.71
2019-05-12T03:17:07.498Z,73.76
2019-05-12T03:19:37.947Z,73.46
2019-05-12T03:22:08.534Z,73.09
2019-05-12T03:24:39.088Z,72.59
2019-05-12T03:27:09.559Z,72.55
2019-05-12T03:29:40.130Z,72.67
2019-05-12T03:32:10.817Z,72.83
2019-05-12T03:34:46.882Z,73.43
2019-05-12T03:37:17.930Z,73.94
2019-05-12T03:39:45.745Z,74.31
2019-05-12T03:42:16.225Z,73.44
2019-05-12T03:44:46.812Z,73.37
2019-05-12T03:47:17.205Z,72.59
2019-05-12T03:49:47.803Z,72.18
2019-05-12T03:52:18.408Z,71.94
2019-05-12T03:54:48.884Z,71.20
2019-05-12T03:57:19.346Z,70.41
2019-05-12T03:59:49.724Z,70.22
2019-05-12T04:02:20.353Z,71.25
2019-05-12T04:04:55.290Z,70.74
2019-05-12T04:07:24.423Z,70.47
2019-05-12T04:09:55.253Z,69.71
2019-05-12T04:12:25.839Z,69.56
2019-05-12T04:14:56.226Z,69.70
2019-05-12T04:17:26.667Z,69.27
2019-05-12T04:19:57.162Z,68.68
2019-05-12T04:22:27.861Z,68.90
2019-05-12T04:24:58.320Z,69.25
2019-05-12T04:27:28.801Z,69.17
2019-05-12T04:29:59.393Z,68.96
2019-05-12T04:32:30.113Z,68.95
2019-05-12T04:35:04.536Z,68.73
2019-05-12T04:37:35.270Z,68.23
2019-05-12T04:40:06.042Z,67.52
2019-05-12T04:42:36.458Z,67.71
2019-05-12T04:45:07.237Z,67.20
2019-05-12T04:47:37.424Z,67.59
2019-05-12T04:50:07.913Z,67.89
2019-05-12T04:52:38.498Z,68.30
2019-05-12T04:55:09.181Z,68.39
2019-05-12T04:57:39.803Z,68.58
2019-05-12T05:00:10.523Z,67.68
2019-05-12T05:02:41.078Z,67.11
2019-05-12T05:05:14.233Z,66.46
2019-05-12T05:07:45.050Z,65.39
2019-05-12T05:10:15.576Z,64.97
2019-05-12T05:12:46.201Z,63.88
2019-05-12T05:15:16.611Z,62.99
2019-05-12T05:17:47.306Z,60.68
2019-05-12T05:20:17.844Z,60.69
2019-05-12T05:22:48.362Z,61.02
2019-05-12T05:25:18.729Z,60.29
2019-05-12T05:27:49.535Z,60.32
2019-05-12T05:30:20.126Z,60.33
2019-05-12T05:32:50.734Z,59.58
2019-05-12T05:35:21.164Z,59.86
2019-05-12T05:37:53.883Z,58.09
2019-05-12T05:40:30.138Z,56.90
2019-05-12T05:42:57.186Z,57.74
2019-05-12T05:45:27.731Z,57.38
2019-05-12T05:48:02.699Z,56.54
2019-05-12T05:50:29.848Z,55.26
2019-05-12T05:53:00.659Z,56.02
2019-05-12T05:55:31.189Z,55.00
2019-05-12T05:58:07.898Z,54.56
2019-05-12T06:00:35.082Z,55.69
2019-05-12T06:03:06.167Z,52.84
2019-05-12T06:05:38.698Z,53.09
2019-05-12T06:08:16.313Z,52.50
2019-05-12T06:10:43.366Z,52.72
2019-05-12T06:13:14.400Z,52.62
2019-05-12T06:15:44.960Z,52.98
2019-05-12T06:18:15.251Z,53.08
2019-05-12T06:20:45.750Z,53.71
2019-05-12T06:23:16.476Z,52.24
2019-05-12T06:25:51.343Z,53.11
2019-05-12T06:28:18.687Z,52.62
2019-05-12T06:30:50.250Z,50.99
2019-05-12T06:33:22.732Z,50.13
2019-05-12T06:35:54.322Z,50.88
2019-05-12T06:38:24.504Z,50.01
2019-05-12T06:40:55.096Z,49.33
2019-05-12T06:43:29.066Z,49.41
2019-05-12T06:45:57.613Z,48.65
2019-05-12T06:48:30.171Z,49.25
2019-05-12T06:51:00.617Z,49.25
2019-05-12T06:53:31.675Z,49.08
2019-05-12T06:56:04.492Z,49.55
2019-05-12T06:58:35.237Z,48.59
2019-05-12T07:01:10.411Z,49.57
2019-05-12T07:03:37.995Z,49.67
2019-05-12T07:06:09.280Z,49.10
2019-05-12T07:08:40.643Z,50.90
2019-05-12T07:11:14.100Z,49.47
2019-05-12T07:13:43.677Z,49.09
2019-05-12T07:16:23.026Z,49.41
2019-05-12T07:18:49.671Z,48.37
2019-05-12T07:21:23.717Z,47.80
2019-05-12T07:23:53.493Z,47.99
2019-05-12T07:26:24.081Z,47.06
2019-05-12T07:28:54.446Z,47.41
2019-05-12T07:31:24.812Z,46.42
2019-05-12T07:33:55.456Z,46.60
2019-05-12T07:36:26.162Z,45.29
2019-05-12T07:39:03.915Z,45.80
2019-05-12T07:41:30.791Z,46.77
2019-05-12T07:44:03.507Z,45.58
2019-05-12T07:46:34.246Z,44.85
2019-05-12T07:49:05.112Z,44.97
2019-05-12T07:51:40.511Z,45.53
2019-05-12T07:54:07.780Z,45.98
2019-05-12T07:56:40.869Z,44.96
2019-05-12T07:59:13.453Z,45.18
2019-05-12T08:01:50.285Z,45.27
2019-05-12T08:04:14.787Z,44.56
2019-05-12T08:06:46.640Z,44.11
2019-05-12T08:09:23.335Z,45.52
2019-05-12T08:11:50.485Z,43.25
2019-05-12T08:14:27.636Z,43.58
2019-05-12T08:16:54.263Z,43.55
2019-05-12T08:19:28.048Z,45.04
2019-05-12T08:21:57.067Z,43.77
2019-05-12T08:24:28.027Z,43.62
2019-05-12T08:27:03.035Z,43.86
2019-05-12T08:29:30.408Z,43.20
2019-05-12T08:32:00.902Z,42.86
2019-05-12T08:34:33.735Z,42.64
2019-05-12T08:37:04.315Z,41.87
2019-05-12T08:39:35.049Z,42.22
2019-05-12T08:42:05.762Z,42.50
2019-05-12T08:44:40.630Z,42.29
2019-05-12T08:47:11.700Z,41.25
2019-05-12T08:49:50.055Z,40.83
2019-05-12T08:52:14.171Z,40.50
2019-05-12T08:54:49.289Z,42.35
2019-05-12T08:57:16.849Z,40.21
2019-05-12T08:59:47.446Z,39.50
2019-05-12T09:02:17.920Z,40.19
2019-05-12T09:04:51.473Z,40.07
2019-05-12T09:07:24.131Z,40.72
2019-05-12T09:09:53.826Z,39.34
2019-05-12T09:12:24.180Z,39.24
2019-05-12T09:14:54.709Z,38.46
2019-05-12T09:17:26.329Z,38.20
2019-05-12T09:20:03.661Z,40.12
2019-05-12T09:22:29.139Z,39.32
2019-05-12T09:25:06.386Z,38.37
2019-05-12T09:27:33.427Z,38.94
2019-05-12T09:30:08.105Z,38.77
2019-05-12T09:32:39.103Z,39.17
2019-05-12T09:35:08.156Z,38.70
2019-05-12T09:37:40.302Z,38.51
2019-05-12T09:40:11.096Z,38.49
2019-05-12T09:42:41.310Z,37.58
2019-05-12T09:45:13.618Z,38.33
2019-05-12T09:47:43.753Z,37.26
2019-05-12T09:50:20.094Z,37.62
2019-05-12T09:52:50.026Z,36.23
2019-05-12T09:55:18.423Z,35.51
2019-05-12T09:57:49.262Z,36.97
2019-05-12T10:00:19.892Z,35.90
2019-05-12T10:02:51.254Z,36.40
2019-05-12T10:05:22.344Z,35.27
2019-05-12T10:07:53.637Z,37.39
2019-05-12T10:10:24.331Z,35.84
2019-05-12T10:12:54.920Z,34.26
2019-05-12T10:15:28.698Z,34.60
2019-05-12T10:18:00.230Z,34.64
2019-05-12T10:20:36.722Z,34.81
2019-05-12T10:23:04.460Z,35.39
2019-05-12T10:25:34.420Z,35.61
2019-05-12T10:28:11.305Z,35.11
2019-05-12T10:30:37.138Z,35.56
2019-05-12T10:33:07.320Z,34.96
2019-05-12T10:35:37.675Z,36.09
2019-05-12T10:38:10.627Z,35.41
2019-05-12T10:40:40.315Z,35.89
2019-05-12T10:43:10.866Z,36.23
2019-05-12T10:45:41.424Z,34.61
2019-05-12T10:48:14.073Z,34.43
2019-05-12T10:50:44.380Z,33.81
2019-05-12T10:53:16.204Z,34.15
2019-05-12T10:55:47.299Z,33.30
2019-05-12T10:58:17.881Z,35.11
2019-05-12T11:00:48.559Z,33.86
2019-05-12T11:03:18.995Z,33.89
2019-05-12T11:05:53.719Z,32.48
2019-05-12T11:08:21.321Z,32.90
2019-05-12T11:10:59.325Z,33.42
2019-05-12T11:13:23.853Z,32.13
2019-05-12T11:15:54.507Z,32.32
2019-05-12T11:18:30.291Z,34.21
2019-05-12T11:20:57.722Z,32.86
2019-05-12T11:23:27.889Z,33.80
2019-05-12T11:25:58.549Z,34.35
2019-05-12T11:28:28.852Z,34.85
2019-05-12T11:30:59.810Z,33.26
2019-05-12T11:33:30.303Z,32.96
2019-05-12T11:36:00.834Z,33.48
2019-05-12T11:38:33.577Z,33.16
2019-05-12T11:41:04.227Z,33.79
2019-05-12T11:43:34.826Z,33.36
2019-05-12T11:46:05.334Z,34.17
2019-05-12T11:48:40.337Z,34.13
2019-05-12T11:51:07.544Z,33.97
2019-05-12T11:53:38.507Z,34.37
2019-05-12T11:56:09.353Z,34.52
2019-05-12T11:58:41.131Z,34.39
2019-05-12T12:01:13.533Z,35.58
2019-05-12T12:03:44.139Z,35.21
2019-05-12T12:06:14.612Z,31.54
2019-05-12T12:08:45.153Z,32.62
2019-05-12T12:11:21.922Z,33.06
2019-05-12T12:13:49.208Z,31.95
2019-05-12T12:16:19.672Z,31.36
2019-05-12T12:18:59.565Z,32.00
2019-05-12T12:21:23.736Z,33.74
2019-05-12T12:23:54.262Z,35.52
2019-05-12T12:26:30.213Z,35.71
2019-05-12T12:28:58.328Z,37.58
2019-05-12T12:31:37.259Z,40.79
2019-05-12T12:34:03.598Z,43.22
2019-05-12T12:36:34.325Z,41.30
2019-05-12T12:39:05.678Z,38.08
2019-05-12T12:41:36.300Z,39.02
2019-05-12T12:44:06.644Z,39.29
2019-05-12T12:46:37.228Z,38.00
2019-05-12T12:49:10.397Z,39.08
2019-05-12T12:51:39.479Z,38.49
2019-05-12T12:54:12.950Z,37.83
2019-05-12T12:56:43.416Z,37.25
2019-05-12T12:59:14.681Z,38.37
2019-05-12T13:01:45.374Z,37.97
2019-05-12T13:04:15.863Z,39.52
2019-05-12T13:06:46.347Z,39.71
2019-05-12T13:09:23.948Z,39.98
2019-05-12T13:11:48.676Z,39.92
2019-05-12T13:14:18.906Z,39.91
2019-05-12T13:16:54.577Z,39.34
2019-05-12T13:19:21.299Z,38.79
2019-05-12T13:21:53.212Z,39.80
2019-05-12T13:24:24.033Z,38.94
2019-05-12T13:26:54.723Z,38.02
2019-05-12T13:29:26.421Z,38.01
2019-05-12T13:31:57.529Z,39.80
2019-05-12T13:34:28.787Z,39.32
2019-05-12T13:37:00.143Z,39.76
2019-05-12T13:39:30.578Z,41.41
2019-05-12T13:42:03.220Z,40.04
2019-05-12T13:44:36.485Z,38.18
2019-05-12T13:47:05.480Z,40.74
2019-05-12T13:49:41.642Z,40.21
2019-05-12T13:52:09.526Z,39.14
2019-05-12T13:54:39.730Z,36.75
2019-05-12T13:57:13.397Z,40.51
2019-05-12T13:59:43.487Z,44.34
2019-05-12T14:02:21.859Z,43.51
2019-05-12T14:04:47.057Z,48.79
2019-05-12T14:07:20.061Z,49.43
2019-05-12T14:09:49.575Z,50.81
2019-05-12T14:12:20.029Z,51.56
2019-05-12T14:14:53.334Z,54.13
2019-05-12T14:17:23.676Z,55.41
2019-05-12T14:19:54.259Z,52.74
2019-05-12T14:22:26.375Z,49.85
2019-05-12T14:25:01.977Z,47.69
2019-05-12T14:27:30.418Z,48.46
2019-05-12T14:30:09.441Z,52.16
2019-05-12T14:32:33.995Z,48.97
2019-05-12T14:35:04.550Z,50.89
2019-05-12T14:37:35.208Z,52.58
2019-05-12T14:40:05.848Z,54.74
2019-05-12T14:42:39.669Z,52.99
2019-05-12T14:45:08.435Z,54.45
2019-05-12T14:47:39.078Z,56.48
2019-05-12T14:50:09.531Z,59.27
2019-05-12T14:52:40.341Z,60.45
2019-05-12T14:55:13.620Z,60.30
2019-05-12T14:57:43.305Z,59.63
2019-05-12T15:00:17.497Z,60.09
2019-05-12T15:02:45.937Z,58.10
2019-05-12T15:05:16.397Z,59.35
2019-05-12T15:07:51.526Z,61.87
2019-05-12T15:10:19.056Z,63.07
2019-05-12T15:12:49.730Z,61.65
2019-05-12T15:15:20.856Z,62.53
2019-05-12T15:17:55.082Z,63.32
2019-05-12T15:20:24.129Z,66.08
2019-05-12T15:22:55.388Z,67.11
2019-05-12T15:25:29.438Z,68.40
2019-05-12T15:27:58.217Z,67.86
2019-05-12T15:30:28.869Z,70.42
2019-05-12T15:32:59.880Z,69.06
2019-05-12T15:35:30.549Z,65.10
2019-05-12T15:38:03.485Z,61.82
2019-05-12T15:40:33.063Z,60.84
2019-05-12T15:43:05.490Z,60.00
2019-05-12T15:45:35.763Z,63.12
2019-05-12T15:48:06.434Z,65.01
2019-05-12T15:50:36.535Z,65.89
2019-05-12T15:53:06.966Z,69.10
2019-05-12T15:55:37.409Z,68.36
2019-05-12T15:58:07.959Z,68.11
2019-05-12T16:00:38.589Z,66.49
2019-05-12T16:03:09.036Z,67.67
2019-05-12T16:05:39.769Z,68.69
2019-05-12T16:08:10.244Z,69.26
2019-05-12T16:10:40.975Z,68.84
2019-05-12T16:13:15.484Z,67.58
2019-05-12T16:15:43.904Z,66.90
2019-05-12T16:18:14.554Z,71.92
2019-05-12T16:20:45.170Z,71.72
2019-05-12T16:23:23.793Z,71.23
2019-05-12T16:25:47.640Z,71.42
2019-05-12T16:28:23.422Z,70.75
2019-05-12T16:30:50.317Z,70.51
2019-05-12T16:33:21.983Z,70.23
2019-05-12T16:35:54.602Z,67.93
2019-05-12T16:38:24.811Z,69.06
2019-05-12T16:40:55.157Z,67.14
2019-05-12T16:43:29.380Z,68.28
2019-05-12T16:45:57.904Z,69.02
2019-05-12T16:48:32.920Z,68.30
2019-05-12T16:51:00.457Z,65.86
2019-05-12T16:53:31.076Z,66.09
2019-05-12T16:56:03.617Z,63.64
2019-05-12T16:58:35.455Z,63.82
2019-05-12T17:01:05.488Z,64.52
2019-05-12T17:03:36.120Z,65.49
2019-05-12T17:06:06.468Z,67.33
2019-05-12T17:08:37.250Z,64.70
2019-05-12T17:11:23.340Z,65.38
2019-05-12T17:13:39.667Z,66.30
2019-05-12T17:16:10.761Z,67.32
2019-05-12T17:18:41.502Z,65.45
2019-05-12T17:21:14.096Z,64.53
2019-05-12T17:23:44.015Z,66.27
2019-05-12T17:26:14.766Z,67.37
2019-05-12T17:28:45.360Z,65.18
2019-05-12T17:31:16.013Z,65.66
2019-05-12T17:33:46.586Z,66.76
2019-05-12T17:36:18.025Z,66.12
2019-05-12T17:38:51.031Z,65.65
2019-05-12T17:41:23.469Z,66.22
2019-05-12T17:44:00.940Z,63.08
2019-05-12T17:46:25.182Z,63.70
2019-05-12T17:48:55.601Z,62.32
2019-05-12T17:51:30.729Z,62.83
2019-05-12T17:53:58.493Z,62.24
2019-05-12T17:56:36.670Z,63.17
2019-05-12T17:59:01.150Z,61.89
2019-05-12T18:01:35.407Z,62.51
2019-05-12T18:04:04.624Z,63.32
2019-05-12T18:06:35.321Z,62.88
2019-05-12T18:09:09.204Z,63.24
2019-05-12T18:11:38.992Z,61.87
2019-05-12T18:14:09.392Z,64.55
2019-05-12T18:16:43.021Z,65.38
2019-05-12T18:19:15.430Z,66.20
2019-05-12T18:21:45.037Z,66.04
2019-05-12T18:24:15.426Z,67.50
2019-05-12T18:26:54.520Z,69.70
2019-05-12T18:29:17.895Z,68.36
2019-05-12T18:31:48.393Z,69.20
2019-05-12T18:34:19.948Z,69.91
2019-05-12T18:36:56.273Z,71.57
2019-05-12T18:39:24.290Z,72.42
2019-05-12T18:41:55.349Z,73.14
2019-05-12T18:44:31.357Z,72.94
2019-05-12T18:46:58.823Z,73.12
2019-05-12T18:49:29.510Z,73.48
2019-05-12T18:52:00.048Z,73.57
2019-05-12T18:54:30.393Z,74.57
2019-05-12T18:57:04.172Z,74.29
2019-05-12T18:59:33.983Z,75.16
2019-05-12T19:02:04.488Z,75.51
2019-05-12T19:04:39.630Z,75.69
2019-05-12T19:07:07.520Z,76.66
2019-05-12T19:09:38.141Z,76.68
2019-05-12T19:12:15.806Z,77.23
2019-05-12T19:14:43.520Z,77.04
2019-05-12T19:17:14.128Z,76.58
2019-05-12T19:19:46.225Z,77.03
2019-05-12T19:22:17.011Z,77.13
2019-05-12T19:24:50.083Z,76.92
2019-05-12T19:27:20.906Z,76.66
2019-05-12T19:29:54.404Z,77.26
2019-05-12T19:32:28.064Z,78.28
2019-05-12T19:34:56.159Z,77.98
2019-05-12T19:37:29.931Z,78.08
2019-05-12T19:40:06.079Z,78.13
2019-05-12T19:42:30.880Z,78.56
2019-05-12T19:45:06.780Z,78.46
2019-05-12T19:47:38.154Z,78.43
2019-05-12T19:50:11.092Z,78.23
2019-05-12T19:52:38.428Z,78.55
2019-05-12T19:55:09.152Z,78.15
2019-05-12T19:57:39.719Z,77.09
2019-05-12T20:00:10.447Z,77.50
2019-05-12T20:02:41.154Z,77.40
2019-05-12T20:05:15.112Z,76.26
2019-05-12T20:07:44.772Z,74.10
2019-05-12T20:10:16.540Z,72.81
2019-05-12T20:12:54.149Z,73.43
2019-05-12T20:15:20.044Z,73.23
2019-05-12T20:17:50.497Z,72.92
2019-05-12T20:20:26.646Z,72.73
2019-05-12T20:22:54.265Z,72.95
2019-05-12T20:25:25.038Z,72.58
2019-05-12T20:28:04.325Z,71.85
2019-05-12T20:30:28.168Z,71.15
2019-05-12T20:32:58.711Z,69.74
2019-05-12T20:35:29.175Z,71.19
2019-05-12T20:37:59.577Z,70.45
2019-05-12T20:40:32.159Z,70.12
2019-05-12T20:43:13.851Z,71.33
2019-05-12T20:45:40.636Z,71.73
2019-05-12T20:48:06.693Z,72.25
2019-05-12T20:50:38.831Z,72.36
2019-05-12T20:53:09.094Z,71.89
2019-05-12T20:55:41.430Z,72.24
2019-05-12T20:58:13.614Z,74.02
2019-05-12T21:00:49.835Z,73.82
2019-05-12T21:03:16.508Z,73.18
2019-05-12T21:05:50.761Z,73.23
2019-05-12T21:08:18.985Z,73.18
2019-05-12T21:10:49.851Z,73.19
2019-05-12T21:13:25.524Z,73.19
2019-05-12T21:15:53.946Z,72.89
2019-05-12T21:18:24.905Z,73.33
2019-05-12T21:20:55.377Z,71.71
2019-05-12T21:23:25.815Z,68.54
2019-05-12T21:25:58.387Z,67.35
2019-05-12T21:28:28.912Z,66.74
2019-05-12T21:30:59.399Z,64.18
2019-05-12T21:33:31.351Z,63.55
2019-05-12T21:36:03.643Z,64.12
2019-05-12T21:38:34.133Z,65.26
2019-05-12T21:41:07.885Z,65.76
2019-05-12T21:43:36.808Z,66.43
2019-05-12T21:46:12.288Z,67.36
2019-05-12T21:48:39.438Z,68.37
2019-05-12T21:51:15.420Z,70.56
2019-05-12T21:53:43.749Z,69.97
2019-05-12T21:56:14.296Z,67.61
2019-05-12T21:58:53.416Z,68.41
2019-05-12T22:01:16.797Z,70.31
2019-05-12T22:03:57.863Z,69.50
2019-05-12T22:06:21.733Z,70.51
2019-05-12T22:09:00.986Z,69.98
2019-05-12T22:11:24.759Z,69.13
2019-05-12T22:14:00.070Z,68.92
2019-05-12T22:16:29.698Z,69.06
2019-05-12T22:18:59.530Z,69.30
2019-05-12T22:21:35.865Z,69.34
2019-05-12T22:24:03.945Z,69.97
2019-05-12T22:26:39.730Z,70.31
2019-05-12T22:29:08.220Z,69.85
2019-05-12T22:31:44.033Z,70.26
2019-05-12T22:34:11.140Z,69.95
2019-05-12T22:36:45.236Z,70.31
2019-05-12T22:39:14.329Z,70.63
2019-05-12T22:41:44.871Z,71.52
2019-05-12T22:44:21.040Z,72.12
2019-05-12T22:46:47.962Z,72.39
2019-05-12T22:49:21.050Z,72.03
2019-05-12T22:51:56.579Z,71.20
2019-05-12T22:54:24.306Z,71.54
2019-05-12T22:56:56.971Z,71.84
2019-05-12T22:59:34.308Z,72.36
2019-05-12T23:01:59.903Z,72.33
2019-05-12T23:04:35.542Z,73.00
2019-05-12T23:07:02.814Z,73.21
2019-05-12T23:09:34.076Z,73.46
2019-05-12T23:12:09.777Z,73.72
2019-05-12T23:14:36.824Z,74.44
2019-05-12T23:17:07.631Z,74.34
2019-05-12T23:19:42.974Z,74.23
2019-05-12T23:22:10.272Z,74.48
2019-05-12T23:24:40.907Z,73.87
2019-05-12T23:27:13.672Z,72.08
2019-05-12T23:29:44.631Z,71.99
2019-05-12T23:32:15.322Z,72.11
2019-05-12T23:34:54.100Z,72.49
2019-05-12T23:37:18.183Z,71.87
2019-05-12T23:39:49.809Z,72.56
2019-05-12T23:42:20.504Z,73.18
2019-05-12T23:44:51.111Z,72.89
2019-05-12T23:47:23.675Z,73.18
2019-05-12T23:49:54.063Z,73.17
2019-05-12T23:52:24.503Z,73.32
2019-05-12T23:54:55.193Z,73.88
2019-05-12T23:57:26.174Z,73.51
2019-05-12T23:59:57.178Z,74.53
